sensor_id;sensor_type;location;lat;lon;timestamp;P1;durP1;ratioP1;P2;durP2;ratioP2
11490;SDS011;5802;52.832;4.758;2023-04-09T00:01:00;5.50;;;2.40;;
11490;SDS011;5802;52.832;4.758;2023-04-09T00:03:28;4.57;;;2.30;;
11490;SDS011;5802;52.832;4.758;2023-04-09T00:05:56;3.35;;;2.47;;
11490;SDS011;5802;52.832;4.758;2023-04-09T00:08:23;4.07;;;2.45;;
11490;SDS011;5802;52.832;4.758;2023-04-09T00:10:50;3.40;;;2.28;;
11490;SDS011;5802;52.832;4.758;2023-04-09T00:13:17;3.70;;;2.67;;
11490;SDS011;5802;52.832;4.758;2023-04-09T00:15:43;3.38;;;2.45;;
11490;SDS011;5802;52.832;4.758;2023-04-09T00:18:10;5.18;;;2.50;;
11490;SDS011;5802;52.832;4.758;2023-04-09T00:20:37;3.88;;;2.20;;
11490;SDS011;5802;52.832;4.758;2023-04-09T00:23:05;6.13;;;2.95;;
11490;SDS011;5802;52.832;4.758;2023-04-09T00:25:32;3.13;;;2.30;;
11490;SDS011;5802;52.832;4.758;2023-04-09T00:27:59;3.58;;;2.60;;
11490;SDS011;5802;52.832;4.758;2023-04-09T00:30:27;2.40;;;2.20;;
11490;SDS011;5802;52.832;4.758;2023-04-09T00:32:54;5.45;;;2.78;;
11490;SDS011;5802;52.832;4.758;2023-04-09T00:35:20;3.17;;;2.47;;
11490;SDS011;5802;52.832;4.758;2023-04-09T00:37:47;2.72;;;2.30;;
11490;SDS011;5802;52.832;4.758;2023-04-09T00:40:16;3.70;;;2.65;;
11490;SDS011;5802;52.832;4.758;2023-04-09T00:42:42;2.38;;;2.08;;
11490;SDS011;5802;52.832;4.758;2023-04-09T00:45:09;3.58;;;2.38;;
11490;SDS011;5802;52.832;4.758;2023-04-09T00:47:36;3.20;;;2.63;;
11490;SDS011;5802;52.832;4.758;2023-04-09T00:50:03;3.55;;;2.53;;
11490;SDS011;5802;52.832;4.758;2023-04-09T00:52:30;2.90;;;2.60;;
11490;SDS011;5802;52.832;4.758;2023-04-09T00:54:58;3.42;;;2.58;;
11490;SDS011;5802;52.832;4.758;2023-04-09T00:57:27;3.13;;;2.65;;
11490;SDS011;5802;52.832;4.758;2023-04-09T00:59:54;3.40;;;3.00;;
11490;SDS011;5802;52.832;4.758;2023-04-09T01:02:21;3.50;;;2.90;;
11490;SDS011;5802;52.832;4.758;2023-04-09T01:04:47;3.95;;;2.80;;
11490;SDS011;5802;52.832;4.758;2023-04-09T01:07:17;3.97;;;3.17;;
11490;SDS011;5802;52.832;4.758;2023-04-09T01:09:49;4.70;;;2.72;;
11490;SDS011;5802;52.832;4.758;2023-04-09T01:12:28;3.20;;;2.85;;
11490;SDS011;5802;52.832;4.758;2023-04-09T01:15:04;4.53;;;2.97;;
11490;SDS011;5802;52.832;4.758;2023-04-09T01:17:34;3.53;;;3.10;;
11490;SDS011;5802;52.832;4.758;2023-04-09T01:20:07;4.10;;;3.20;;
11490;SDS011;5802;52.832;4.758;2023-04-09T01:22:39;4.22;;;3.33;;
11490;SDS011;5802;52.832;4.758;2023-04-09T01:25:17;3.78;;;3.13;;
11490;SDS011;5802;52.832;4.758;2023-04-09T01:28:02;3.72;;;3.10;;
11490;SDS011;5802;52.832;4.758;2023-04-09T01:30:37;3.80;;;3.05;;
11490;SDS011;5802;52.832;4.758;2023-04-09T01:33:05;4.78;;;3.42;;
11490;SDS011;5802;52.832;4.758;2023-04-09T01:35:32;3.90;;;3.10;;
11490;SDS011;5802;52.832;4.758;2023-04-09T01:37:59;5.00;;;3.40;;
11490;SDS011;5802;52.832;4.758;2023-04-09T01:40:27;3.70;;;3.22;;
11490;SDS011;5802;52.832;4.758;2023-04-09T01:42:54;3.75;;;3.20;;
11490;SDS011;5802;52.832;4.758;2023-04-09T01:45:24;4.30;;;3.47;;
11490;SDS011;5802;52.832;4.758;2023-04-09T01:47:51;4.57;;;3.63;;
11490;SDS011;5802;52.832;4.758;2023-04-09T01:50:20;3.70;;;3.05;;
11490;SDS011;5802;52.832;4.758;2023-04-09T01:52:47;4.97;;;3.40;;
11490;SDS011;5802;52.832;4.758;2023-04-09T01:55:14;4.30;;;3.55;;
11490;SDS011;5802;52.832;4.758;2023-04-09T01:57:41;4.45;;;3.17;;
11490;SDS011;5802;52.832;4.758;2023-04-09T02:00:08;3.83;;;3.08;;
11490;SDS011;5802;52.832;4.758;2023-04-09T02:02:38;4.30;;;3.30;;
11490;SDS011;5802;52.832;4.758;2023-04-09T02:05:13;3.63;;;3.05;;
11490;SDS011;5802;52.832;4.758;2023-04-09T02:07:44;5.63;;;3.65;;
11490;SDS011;5802;52.832;4.758;2023-04-09T02:10:15;4.18;;;3.50;;
11490;SDS011;5802;52.832;4.758;2023-04-09T02:12:47;4.97;;;3.78;;
11490;SDS011;5802;52.832;4.758;2023-04-09T02:15:16;4.07;;;3.67;;
11490;SDS011;5802;52.832;4.758;2023-04-09T02:17:46;4.85;;;3.60;;
11490;SDS011;5802;52.832;4.758;2023-04-09T02:20:15;5.53;;;3.47;;
11490;SDS011;5802;52.832;4.758;2023-04-09T02:22:42;3.85;;;3.42;;
11490;SDS011;5802;52.832;4.758;2023-04-09T02:25:09;3.92;;;3.47;;
11490;SDS011;5802;52.832;4.758;2023-04-09T02:27:36;4.30;;;3.60;;
11490;SDS011;5802;52.832;4.758;2023-04-09T02:30:03;4.60;;;3.67;;
11490;SDS011;5802;52.832;4.758;2023-04-09T02:32:30;3.92;;;3.53;;
11490;SDS011;5802;52.832;4.758;2023-04-09T02:34:58;4.43;;;3.88;;
11490;SDS011;5802;52.832;4.758;2023-04-09T02:37:24;5.10;;;3.80;;
11490;SDS011;5802;52.832;4.758;2023-04-09T02:39:51;4.15;;;3.65;;
11490;SDS011;5802;52.832;4.758;2023-04-09T02:42:18;5.40;;;3.85;;
11490;SDS011;5802;52.832;4.758;2023-04-09T02:44:45;4.55;;;3.28;;
11490;SDS011;5802;52.832;4.758;2023-04-09T02:47:12;5.00;;;3.90;;
11490;SDS011;5802;52.832;4.758;2023-04-09T02:49:39;3.92;;;3.40;;
11490;SDS011;5802;52.832;4.758;2023-04-09T02:52:08;3.95;;;3.55;;
11490;SDS011;5802;52.832;4.758;2023-04-09T02:54:35;4.10;;;3.70;;
11490;SDS011;5802;52.832;4.758;2023-04-09T02:57:02;5.53;;;4.10;;
11490;SDS011;5802;52.832;4.758;2023-04-09T02:59:28;4.38;;;3.97;;
11490;SDS011;5802;52.832;4.758;2023-04-09T03:01:56;4.30;;;3.80;;
11490;SDS011;5802;52.832;4.758;2023-04-09T03:04:23;3.85;;;3.45;;
11490;SDS011;5802;52.832;4.758;2023-04-09T03:06:50;4.45;;;3.65;;
11490;SDS011;5802;52.832;4.758;2023-04-09T03:09:18;4.82;;;3.65;;
11490;SDS011;5802;52.832;4.758;2023-04-09T03:11:44;4.32;;;3.72;;
11490;SDS011;5802;52.832;4.758;2023-04-09T03:14:11;4.40;;;3.72;;
11490;SDS011;5802;52.832;4.758;2023-04-09T03:16:38;5.72;;;3.40;;
11490;SDS011;5802;52.832;4.758;2023-04-09T03:19:04;5.18;;;3.67;;
11490;SDS011;5802;52.832;4.758;2023-04-09T03:21:31;4.75;;;3.75;;
11490;SDS011;5802;52.832;4.758;2023-04-09T03:23:58;3.78;;;3.30;;
11490;SDS011;5802;52.832;4.758;2023-04-09T03:26:27;4.82;;;3.92;;
11490;SDS011;5802;52.832;4.758;2023-04-09T03:29:00;3.92;;;3.50;;
11490;SDS011;5802;52.832;4.758;2023-04-09T03:31:26;4.38;;;3.63;;
11490;SDS011;5802;52.832;4.758;2023-04-09T03:33:53;4.50;;;3.70;;
11490;SDS011;5802;52.832;4.758;2023-04-09T03:36:19;4.55;;;3.42;;
11490;SDS011;5802;52.832;4.758;2023-04-09T03:38:46;3.88;;;3.50;;
11490;SDS011;5802;52.832;4.758;2023-04-09T03:41:13;4.10;;;3.30;;
11490;SDS011;5802;52.832;4.758;2023-04-09T03:43:41;3.50;;;3.20;;
11490;SDS011;5802;52.832;4.758;2023-04-09T03:46:11;4.82;;;3.58;;
11490;SDS011;5802;52.832;4.758;2023-04-09T03:48:37;4.07;;;3.30;;
11490;SDS011;5802;52.832;4.758;2023-04-09T03:51:04;3.80;;;3.40;;
11490;SDS011;5802;52.832;4.758;2023-04-09T03:53:31;3.55;;;3.20;;
11490;SDS011;5802;52.832;4.758;2023-04-09T03:55:57;3.80;;;3.30;;
11490;SDS011;5802;52.832;4.758;2023-04-09T03:58:25;3.72;;;3.20;;
11490;SDS011;5802;52.832;4.758;2023-04-09T04:00:53;4.38;;;3.63;;
11490;SDS011;5802;52.832;4.758;2023-04-09T04:03:20;3.88;;;3.17;;
11490;SDS011;5802;52.832;4.758;2023-04-09T04:05:47;5.25;;;3.40;;
11490;SDS011;5802;52.832;4.758;2023-04-09T04:08:13;3.80;;;3.10;;
11490;SDS011;5802;52.832;4.758;2023-04-09T04:10:41;4.15;;;3.38;;
11490;SDS011;5802;52.832;4.758;2023-04-09T04:13:08;4.35;;;3.47;;
11490;SDS011;5802;52.832;4.758;2023-04-09T04:15:38;3.90;;;3.30;;
11490;SDS011;5802;52.832;4.758;2023-04-09T04:18:07;4.00;;;3.00;;
11490;SDS011;5802;52.832;4.758;2023-04-09T04:20:35;3.65;;;3.25;;
11490;SDS011;5802;52.832;4.758;2023-04-09T04:23:02;4.38;;;3.53;;
11490;SDS011;5802;52.832;4.758;2023-04-09T04:25:29;3.92;;;3.53;;
11490;SDS011;5802;52.832;4.758;2023-04-09T04:27:56;3.60;;;3.17;;
11490;SDS011;5802;52.832;4.758;2023-04-09T04:30:23;3.75;;;3.35;;
11490;SDS011;5802;52.832;4.758;2023-04-09T04:32:49;4.20;;;3.60;;
11490;SDS011;5802;52.832;4.758;2023-04-09T04:35:18;6.03;;;3.15;;
11490;SDS011;5802;52.832;4.758;2023-04-09T04:37:48;3.90;;;3.33;;
11490;SDS011;5802;52.832;4.758;2023-04-09T04:40:15;4.00;;;3.30;;
11490;SDS011;5802;52.832;4.758;2023-04-09T04:42:42;4.03;;;3.33;;
11490;SDS011;5802;52.832;4.758;2023-04-09T04:45:08;3.63;;;3.30;;
11490;SDS011;5802;52.832;4.758;2023-04-09T04:47:36;5.72;;;3.30;;
11490;SDS011;5802;52.832;4.758;2023-04-09T04:50:02;4.13;;;3.40;;
11490;SDS011;5802;52.832;4.758;2023-04-09T04:52:31;4.38;;;3.58;;
11490;SDS011;5802;52.832;4.758;2023-04-09T04:54:58;4.53;;;2.90;;
11490;SDS011;5802;52.832;4.758;2023-04-09T04:57:25;3.30;;;3.00;;
11490;SDS011;5802;52.832;4.758;2023-04-09T04:59:51;4.07;;;3.35;;
11490;SDS011;5802;52.832;4.758;2023-04-09T05:02:18;3.72;;;3.33;;
11490;SDS011;5802;52.832;4.758;2023-04-09T05:04:44;3.40;;;3.10;;
11490;SDS011;5802;52.832;4.758;2023-04-09T05:07:11;4.43;;;3.20;;
11490;SDS011;5802;52.832;4.758;2023-04-09T05:09:39;4.28;;;3.55;;
11490;SDS011;5802;52.832;4.758;2023-04-09T05:12:06;4.65;;;3.55;;
11490;SDS011;5802;52.832;4.758;2023-04-09T05:14:33;3.22;;;2.90;;
11490;SDS011;5802;52.832;4.758;2023-04-09T05:17:00;3.50;;;3.10;;
11490;SDS011;5802;52.832;4.758;2023-04-09T05:19:27;3.50;;;3.13;;
11490;SDS011;5802;52.832;4.758;2023-04-09T05:21:53;4.05;;;3.30;;
11490;SDS011;5802;52.832;4.758;2023-04-09T05:24:20;5.47;;;3.42;;
11490;SDS011;5802;52.832;4.758;2023-04-09T05:26:48;3.63;;;3.30;;
11490;SDS011;5802;52.832;4.758;2023-04-09T05:29:15;3.47;;;3.17;;
11490;SDS011;5802;52.832;4.758;2023-04-09T05:31:41;3.67;;;3.20;;
11490;SDS011;5802;52.832;4.758;2023-04-09T05:34:08;4.78;;;3.17;;
11490;SDS011;5802;52.832;4.758;2023-04-09T05:36:35;3.75;;;3.20;;
11490;SDS011;5802;52.832;4.758;2023-04-09T05:39:01;3.97;;;3.50;;
11490;SDS011;5802;52.832;4.758;2023-04-09T05:41:28;3.78;;;3.22;;
11490;SDS011;5802;52.832;4.758;2023-04-09T05:43:58;4.18;;;3.63;;
11490;SDS011;5802;52.832;4.758;2023-04-09T05:46:24;4.72;;;3.70;;
11490;SDS011;5802;52.832;4.758;2023-04-09T05:48:52;4.72;;;3.50;;
11490;SDS011;5802;52.832;4.758;2023-04-09T05:51:19;4.15;;;3.60;;
11490;SDS011;5802;52.832;4.758;2023-04-09T05:53:47;3.95;;;3.42;;
11490;SDS011;5802;52.832;4.758;2023-04-09T05:56:14;4.47;;;3.50;;
11490;SDS011;5802;52.832;4.758;2023-04-09T05:58:41;4.07;;;3.50;;
11490;SDS011;5802;52.832;4.758;2023-04-09T06:01:09;4.53;;;3.40;;
11490;SDS011;5802;52.832;4.758;2023-04-09T06:03:35;4.75;;;3.25;;
11490;SDS011;5802;52.832;4.758;2023-04-09T06:06:02;4.63;;;4.00;;
11490;SDS011;5802;52.832;4.758;2023-04-09T06:08:29;4.43;;;3.40;;
11490;SDS011;5802;52.832;4.758;2023-04-09T06:10:57;5.30;;;3.80;;
11490;SDS011;5802;52.832;4.758;2023-04-09T06:13:24;5.10;;;3.80;;
11490;SDS011;5802;52.832;4.758;2023-04-09T06:15:50;5.90;;;3.47;;
11490;SDS011;5802;52.832;4.758;2023-04-09T06:18:18;4.95;;;4.03;;
11490;SDS011;5802;52.832;4.758;2023-04-09T06:20:45;4.85;;;3.40;;
11490;SDS011;5802;52.832;4.758;2023-04-09T06:23:12;4.15;;;3.70;;
11490;SDS011;5802;52.832;4.758;2023-04-09T06:25:38;5.25;;;3.75;;
11490;SDS011;5802;52.832;4.758;2023-04-09T06:28:05;4.32;;;3.40;;
11490;SDS011;5802;52.832;4.758;2023-04-09T06:30:32;8.32;;;4.40;;
11490;SDS011;5802;52.832;4.758;2023-04-09T06:33:00;4.60;;;3.80;;
11490;SDS011;5802;52.832;4.758;2023-04-09T06:35:28;4.20;;;3.80;;
11490;SDS011;5802;52.832;4.758;2023-04-09T06:37:55;5.63;;;3.83;;
11490;SDS011;5802;52.832;4.758;2023-04-09T06:40:22;5.65;;;4.20;;
11490;SDS011;5802;52.832;4.758;2023-04-09T06:42:49;4.55;;;4.00;;
11490;SDS011;5802;52.832;4.758;2023-04-09T06:45:15;5.28;;;4.10;;
11490;SDS011;5802;52.832;4.758;2023-04-09T06:47:42;4.68;;;4.07;;
11490;SDS011;5802;52.832;4.758;2023-04-09T06:50:09;4.90;;;3.70;;
11490;SDS011;5802;52.832;4.758;2023-04-09T06:52:37;5.20;;;4.07;;
11490;SDS011;5802;52.832;4.758;2023-04-09T06:55:04;4.95;;;4.00;;
11490;SDS011;5802;52.832;4.758;2023-04-09T06:57:31;5.63;;;4.63;;
11490;SDS011;5802;52.832;4.758;2023-04-09T06:59:57;7.15;;;5.00;;
11490;SDS011;5802;52.832;4.758;2023-04-09T07:02:24;7.18;;;5.35;;
11490;SDS011;5802;52.832;4.758;2023-04-09T07:04:51;5.47;;;4.68;;
11490;SDS011;5802;52.832;4.758;2023-04-09T07:07:18;6.38;;;4.70;;
11490;SDS011;5802;52.832;4.758;2023-04-09T07:09:46;7.13;;;5.05;;
11490;SDS011;5802;52.832;4.758;2023-04-09T07:12:13;7.70;;;5.03;;
11490;SDS011;5802;52.832;4.758;2023-04-09T07:14:40;6.15;;;4.95;;
11490;SDS011;5802;52.832;4.758;2023-04-09T07:17:07;6.25;;;5.10;;
11490;SDS011;5802;52.832;4.758;2023-04-09T07:19:33;6.05;;;5.30;;
11490;SDS011;5802;52.832;4.758;2023-04-09T07:22:00;9.10;;;5.10;;
11490;SDS011;5802;52.832;4.758;2023-04-09T07:24:27;6.80;;;5.30;;
11490;SDS011;5802;52.832;4.758;2023-04-09T07:26:55;6.28;;;5.22;;
11490;SDS011;5802;52.832;4.758;2023-04-09T07:29:21;7.80;;;5.68;;
11490;SDS011;5802;52.832;4.758;2023-04-09T07:31:48;9.82;;;5.30;;
11490;SDS011;5802;52.832;4.758;2023-04-09T07:34:15;6.75;;;5.47;;
11490;SDS011;5802;52.832;4.758;2023-04-09T07:36:41;8.15;;;5.40;;
11490;SDS011;5802;52.832;4.758;2023-04-09T07:39:08;8.02;;;5.10;;
11490;SDS011;5802;52.832;4.758;2023-04-09T07:41:35;6.15;;;5.25;;
11490;SDS011;5802;52.832;4.758;2023-04-09T07:44:03;11.50;;;5.60;;
11490;SDS011;5802;52.832;4.758;2023-04-09T07:46:31;9.57;;;5.57;;
11490;SDS011;5802;52.832;4.758;2023-04-09T07:48:58;9.00;;;5.90;;
11490;SDS011;5802;52.832;4.758;2023-04-09T07:51:25;6.90;;;5.95;;
11490;SDS011;5802;52.832;4.758;2023-04-09T07:53:52;11.68;;;5.88;;
11490;SDS011;5802;52.832;4.758;2023-04-09T07:56:18;7.75;;;5.40;;
11490;SDS011;5802;52.832;4.758;2023-04-09T07:58:45;6.72;;;5.18;;
11490;SDS011;5802;52.832;4.758;2023-04-09T08:01:14;9.73;;;5.78;;
11490;SDS011;5802;52.832;4.758;2023-04-09T08:03:41;7.70;;;5.70;;
11490;SDS011;5802;52.832;4.758;2023-04-09T08:06:07;6.90;;;5.63;;
11490;SDS011;5802;52.832;4.758;2023-04-09T08:08:34;7.32;;;5.85;;
11490;SDS011;5802;52.832;4.758;2023-04-09T08:11:01;7.03;;;5.75;;
11490;SDS011;5802;52.832;4.758;2023-04-09T08:13:28;8.95;;;5.68;;
11490;SDS011;5802;52.832;4.758;2023-04-09T08:15:55;6.95;;;5.38;;
11490;SDS011;5802;52.832;4.758;2023-04-09T08:18:23;11.15;;;5.75;;
11490;SDS011;5802;52.832;4.758;2023-04-09T08:20:49;8.98;;;5.88;;
11490;SDS011;5802;52.832;4.758;2023-04-09T08:23:16;7.18;;;5.47;;
11490;SDS011;5802;52.832;4.758;2023-04-09T08:25:43;7.47;;;5.63;;
11490;SDS011;5802;52.832;4.758;2023-04-09T08:28:09;7.38;;;5.53;;
11490;SDS011;5802;52.832;4.758;2023-04-09T08:30:36;10.50;;;5.57;;
11490;SDS011;5802;52.832;4.758;2023-04-09T08:33:03;7.32;;;5.50;;
11490;SDS011;5802;52.832;4.758;2023-04-09T08:35:31;6.47;;;5.68;;
11490;SDS011;5802;52.832;4.758;2023-04-09T08:37:58;6.88;;;5.90;;
11490;SDS011;5802;52.832;4.758;2023-04-09T08:40:25;6.80;;;5.55;;
11490;SDS011;5802;52.832;4.758;2023-04-09T08:42:52;6.50;;;5.47;;
11490;SDS011;5802;52.832;4.758;2023-04-09T08:45:21;9.35;;;5.60;;
11490;SDS011;5802;52.832;4.758;2023-04-09T08:47:48;8.25;;;5.60;;
11490;SDS011;5802;52.832;4.758;2023-04-09T08:50:16;7.65;;;5.97;;
11490;SDS011;5802;52.832;4.758;2023-04-09T08:52:45;7.32;;;5.75;;
11490;SDS011;5802;52.832;4.758;2023-04-09T08:55:12;7.85;;;6.00;;
11490;SDS011;5802;52.832;4.758;2023-04-09T08:57:39;7.88;;;5.85;;
11490;SDS011;5802;52.832;4.758;2023-04-09T09:00:06;6.15;;;5.28;;
11490;SDS011;5802;52.832;4.758;2023-04-09T09:02:34;6.60;;;5.35;;
11490;SDS011;5802;52.832;4.758;2023-04-09T09:05:02;7.97;;;5.32;;
11490;SDS011;5802;52.832;4.758;2023-04-09T09:07:29;6.70;;;6.00;;
11490;SDS011;5802;52.832;4.758;2023-04-09T09:09:58;7.22;;;5.90;;
11490;SDS011;5802;52.832;4.758;2023-04-09T09:12:34;10.10;;;6.25;;
11490;SDS011;5802;52.832;4.758;2023-04-09T09:15:03;7.63;;;5.60;;
11490;SDS011;5802;52.832;4.758;2023-04-09T09:17:33;7.20;;;5.85;;
11490;SDS011;5802;52.832;4.758;2023-04-09T09:20:18;8.00;;;6.10;;
11490;SDS011;5802;52.832;4.758;2023-04-09T09:22:49;8.38;;;6.30;;
11490;SDS011;5802;52.832;4.758;2023-04-09T09:25:18;7.07;;;5.13;;
11490;SDS011;5802;52.832;4.758;2023-04-09T09:27:47;9.32;;;5.40;;
11490;SDS011;5802;52.832;4.758;2023-04-09T09:30:19;7.70;;;5.93;;
11490;SDS011;5802;52.832;4.758;2023-04-09T09:32:47;7.45;;;5.35;;
11490;SDS011;5802;52.832;4.758;2023-04-09T09:35:17;6.72;;;5.47;;
11490;SDS011;5802;52.832;4.758;2023-04-09T09:37:44;7.28;;;5.15;;
11490;SDS011;5802;52.832;4.758;2023-04-09T09:40:11;10.98;;;5.47;;
11490;SDS011;5802;52.832;4.758;2023-04-09T09:42:54;9.90;;;5.72;;
11490;SDS011;5802;52.832;4.758;2023-04-09T09:45:21;9.05;;;5.75;;
11490;SDS011;5802;52.832;4.758;2023-04-09T09:47:49;12.18;;;5.50;;
11490;SDS011;5802;52.832;4.758;2023-04-09T09:50:17;7.15;;;5.68;;
11490;SDS011;5802;52.832;4.758;2023-04-09T09:52:44;17.25;;;5.22;;
11490;SDS011;5802;52.832;4.758;2023-04-09T09:55:12;7.35;;;5.20;;
11490;SDS011;5802;52.832;4.758;2023-04-09T09:57:43;7.90;;;5.32;;
11490;SDS011;5802;52.832;4.758;2023-04-09T10:00:11;6.78;;;5.15;;
11490;SDS011;5802;52.832;4.758;2023-04-09T10:02:40;7.88;;;5.57;;
11490;SDS011;5802;52.832;4.758;2023-04-09T10:05:13;7.53;;;5.28;;
11490;SDS011;5802;52.832;4.758;2023-04-09T10:07:40;8.48;;;5.18;;
11490;SDS011;5802;52.832;4.758;2023-04-09T10:10:07;6.90;;;5.03;;
11490;SDS011;5802;52.832;4.758;2023-04-09T10:12:35;11.73;;;5.10;;
11490;SDS011;5802;52.832;4.758;2023-04-09T10:15:03;5.38;;;4.78;;
11490;SDS011;5802;52.832;4.758;2023-04-09T10:17:30;6.55;;;4.88;;
11490;SDS011;5802;52.832;4.758;2023-04-09T10:19:58;7.90;;;5.22;;
11490;SDS011;5802;52.832;4.758;2023-04-09T10:22:40;8.13;;;5.18;;
11490;SDS011;5802;52.832;4.758;2023-04-09T10:25:11;6.22;;;5.43;;
11490;SDS011;5802;52.832;4.758;2023-04-09T10:27:38;6.13;;;4.97;;
11490;SDS011;5802;52.832;4.758;2023-04-09T10:30:06;7.70;;;4.88;;
11490;SDS011;5802;52.832;4.758;2023-04-09T10:32:34;6.63;;;5.07;;
11490;SDS011;5802;52.832;4.758;2023-04-09T10:35:02;7.45;;;5.22;;
11490;SDS011;5802;52.832;4.758;2023-04-09T10:37:29;8.05;;;5.05;;
11490;SDS011;5802;52.832;4.758;2023-04-09T10:39:55;6.13;;;5.18;;
11490;SDS011;5802;52.832;4.758;2023-04-09T10:42:22;7.65;;;5.07;;
11490;SDS011;5802;52.832;4.758;2023-04-09T10:45:03;7.88;;;5.18;;
11490;SDS011;5802;52.832;4.758;2023-04-09T10:47:34;6.47;;;4.78;;
11490;SDS011;5802;52.832;4.758;2023-04-09T10:50:14;6.07;;;5.07;;
11490;SDS011;5802;52.832;4.758;2023-04-09T10:52:42;6.32;;;5.10;;
11490;SDS011;5802;52.832;4.758;2023-04-09T10:55:09;6.53;;;5.30;;
11490;SDS011;5802;52.832;4.758;2023-04-09T10:57:55;9.27;;;5.60;;
11490;SDS011;5802;52.832;4.758;2023-04-09T11:00:23;5.75;;;5.10;;
11490;SDS011;5802;52.832;4.758;2023-04-09T11:03:09;4.90;;;4.40;;
11490;SDS011;5802;52.832;4.758;2023-04-09T11:05:49;5.70;;;4.75;;
11490;SDS011;5802;52.832;4.758;2023-04-09T11:08:18;8.00;;;4.60;;
11490;SDS011;5802;52.832;4.758;2023-04-09T11:10:46;5.68;;;4.78;;
11490;SDS011;5802;52.832;4.758;2023-04-09T11:13:13;5.75;;;4.80;;
11490;SDS011;5802;52.832;4.758;2023-04-09T11:15:43;5.50;;;4.75;;
11490;SDS011;5802;52.832;4.758;2023-04-09T11:18:13;5.50;;;4.90;;
11490;SDS011;5802;52.832;4.758;2023-04-09T11:20:40;6.90;;;4.97;;
11490;SDS011;5802;52.832;4.758;2023-04-09T11:23:07;6.35;;;5.13;;
11490;SDS011;5802;52.832;4.758;2023-04-09T11:25:33;6.00;;;4.90;;
11490;SDS011;5802;52.832;4.758;2023-04-09T11:28:01;5.22;;;4.72;;
11490;SDS011;5802;52.832;4.758;2023-04-09T11:30:28;6.18;;;5.10;;
11490;SDS011;5802;52.832;4.758;2023-04-09T11:32:59;5.65;;;4.60;;
11490;SDS011;5802;52.832;4.758;2023-04-09T11:35:26;6.20;;;4.65;;
11490;SDS011;5802;52.832;4.758;2023-04-09T11:37:53;5.13;;;4.63;;
11490;SDS011;5802;52.832;4.758;2023-04-09T11:40:21;5.20;;;4.53;;
11490;SDS011;5802;52.832;4.758;2023-04-09T11:42:50;6.72;;;5.10;;
11490;SDS011;5802;52.832;4.758;2023-04-09T11:45:18;5.90;;;4.45;;
11490;SDS011;5802;52.832;4.758;2023-04-09T11:47:46;5.78;;;4.88;;
11490;SDS011;5802;52.832;4.758;2023-04-09T11:50:15;5.72;;;4.93;;
11490;SDS011;5802;52.832;4.758;2023-04-09T11:52:42;6.63;;;4.72;;
11490;SDS011;5802;52.832;4.758;2023-04-09T11:55:10;6.95;;;4.80;;
11490;SDS011;5802;52.832;4.758;2023-04-09T11:57:40;6.85;;;4.65;;
11490;SDS011;5802;52.832;4.758;2023-04-09T12:00:09;6.50;;;4.53;;
11490;SDS011;5802;52.832;4.758;2023-04-09T12:02:37;6.97;;;4.28;;
11490;SDS011;5802;52.832;4.758;2023-04-09T12:05:06;5.72;;;4.45;;
11490;SDS011;5802;52.832;4.758;2023-04-09T12:07:39;10.10;;;4.93;;
11490;SDS011;5802;52.832;4.758;2023-04-09T12:10:06;7.95;;;4.82;;
11490;SDS011;5802;52.832;4.758;2023-04-09T12:12:38;5.85;;;4.45;;
11490;SDS011;5802;52.832;4.758;2023-04-09T12:15:09;5.78;;;4.90;;
11490;SDS011;5802;52.832;4.758;2023-04-09T12:17:37;5.30;;;4.40;;
11490;SDS011;5802;52.832;4.758;2023-04-09T12:20:04;7.45;;;4.20;;
11490;SDS011;5802;52.832;4.758;2023-04-09T12:22:32;5.13;;;4.60;;
11490;SDS011;5802;52.832;4.758;2023-04-09T12:25:01;5.55;;;4.28;;
11490;SDS011;5802;52.832;4.758;2023-04-09T12:27:28;6.15;;;4.80;;
11490;SDS011;5802;52.832;4.758;2023-04-09T12:29:54;5.25;;;4.32;;
11490;SDS011;5802;52.832;4.758;2023-04-09T12:32:21;6.65;;;4.80;;
11490;SDS011;5802;52.832;4.758;2023-04-09T12:34:48;7.95;;;4.43;;
11490;SDS011;5802;52.832;4.758;2023-04-09T12:37:14;5.30;;;4.03;;
11490;SDS011;5802;52.832;4.758;2023-04-09T12:39:41;5.55;;;3.97;;
11490;SDS011;5802;52.832;4.758;2023-04-09T12:42:09;6.15;;;4.30;;
11490;SDS011;5802;52.832;4.758;2023-04-09T12:44:36;5.20;;;4.40;;
11490;SDS011;5802;52.832;4.758;2023-04-09T12:47:03;5.97;;;4.50;;
11490;SDS011;5802;52.832;4.758;2023-04-09T12:49:29;4.72;;;4.10;;
11490;SDS011;5802;52.832;4.758;2023-04-09T12:51:57;6.25;;;4.05;;
11490;SDS011;5802;52.832;4.758;2023-04-09T12:54:23;6.45;;;4.32;;
11490;SDS011;5802;52.832;4.758;2023-04-09T12:56:50;5.75;;;4.13;;
11490;SDS011;5802;52.832;4.758;2023-04-09T12:59:18;6.15;;;4.72;;
11490;SDS011;5802;52.832;4.758;2023-04-09T13:01:44;6.35;;;4.70;;
11490;SDS011;5802;52.832;4.758;2023-04-09T13:04:11;7.85;;;4.68;;
11490;SDS011;5802;52.832;4.758;2023-04-09T13:06:44;8.27;;;5.35;;
11490;SDS011;5802;52.832;4.758;2023-04-09T13:09:10;7.07;;;5.07;;
11490;SDS011;5802;52.832;4.758;2023-04-09T13:11:37;9.23;;;5.35;;
11490;SDS011;5802;52.832;4.758;2023-04-09T13:14:03;7.93;;;5.00;;
11490;SDS011;5802;52.832;4.758;2023-04-09T13:16:31;7.40;;;5.20;;
11490;SDS011;5802;52.832;4.758;2023-04-09T13:18:58;8.18;;;4.93;;
11490;SDS011;5802;52.832;4.758;2023-04-09T13:21:25;6.00;;;4.80;;
11490;SDS011;5802;52.832;4.758;2023-04-09T13:23:52;5.68;;;5.07;;
11490;SDS011;5802;52.832;4.758;2023-04-09T13:26:18;9.65;;;5.43;;
11490;SDS011;5802;52.832;4.758;2023-04-09T13:28:45;9.02;;;5.05;;
11490;SDS011;5802;52.832;4.758;2023-04-09T13:31:12;7.75;;;5.25;;
11490;SDS011;5802;52.832;4.758;2023-04-09T13:33:40;6.90;;;5.28;;
11490;SDS011;5802;52.832;4.758;2023-04-09T13:36:06;6.25;;;5.50;;
11490;SDS011;5802;52.832;4.758;2023-04-09T13:38:33;7.70;;;5.30;;
11490;SDS011;5802;52.832;4.758;2023-04-09T13:41:00;5.75;;;5.20;;
11490;SDS011;5802;52.832;4.758;2023-04-09T13:43:27;8.25;;;4.97;;
11490;SDS011;5802;52.832;4.758;2023-04-09T13:45:54;6.45;;;5.40;;
11490;SDS011;5802;52.832;4.758;2023-04-09T13:48:21;6.90;;;4.97;;
11490;SDS011;5802;52.832;4.758;2023-04-09T13:50:49;5.63;;;5.13;;
11490;SDS011;5802;52.832;4.758;2023-04-09T13:53:16;10.40;;;7.32;;
11490;SDS011;5802;52.832;4.758;2023-04-09T13:55:43;10.32;;;7.30;;
11490;SDS011;5802;52.832;4.758;2023-04-09T13:58:10;9.00;;;7.97;;
11490;SDS011;5802;52.832;4.758;2023-04-09T14:00:37;10.65;;;7.90;;
11490;SDS011;5802;52.832;4.758;2023-04-09T14:03:04;8.75;;;6.55;;
11490;SDS011;5802;52.832;4.758;2023-04-09T14:05:30;8.75;;;6.40;;
11490;SDS011;5802;52.832;4.758;2023-04-09T14:07:58;8.07;;;5.93;;
11490;SDS011;5802;52.832;4.758;2023-04-09T14:10:25;9.57;;;6.05;;
11490;SDS011;5802;52.832;4.758;2023-04-09T14:12:52;8.57;;;6.53;;
11490;SDS011;5802;52.832;4.758;2023-04-09T14:15:19;7.10;;;5.90;;
11490;SDS011;5802;52.832;4.758;2023-04-09T14:17:46;6.43;;;5.43;;
11490;SDS011;5802;52.832;4.758;2023-04-09T14:20:12;6.32;;;5.65;;
11490;SDS011;5802;52.832;4.758;2023-04-09T14:22:39;8.95;;;5.60;;
11490;SDS011;5802;52.832;4.758;2023-04-09T14:25:08;7.78;;;5.30;;
11490;SDS011;5802;52.832;4.758;2023-04-09T14:27:35;7.75;;;5.43;;
11490;SDS011;5802;52.832;4.758;2023-04-09T14:30:03;5.60;;;5.10;;
11490;SDS011;5802;52.832;4.758;2023-04-09T14:32:31;5.75;;;5.10;;
11490;SDS011;5802;52.832;4.758;2023-04-09T14:34:58;9.68;;;5.63;;
11490;SDS011;5802;52.832;4.758;2023-04-09T14:37:26;6.50;;;5.75;;
11490;SDS011;5802;52.832;4.758;2023-04-09T14:39:52;6.30;;;5.50;;
11490;SDS011;5802;52.832;4.758;2023-04-09T14:42:20;7.65;;;5.43;;
11490;SDS011;5802;52.832;4.758;2023-04-09T14:44:47;6.25;;;5.25;;
11490;SDS011;5802;52.832;4.758;2023-04-09T14:47:14;6.03;;;5.00;;
11490;SDS011;5802;52.832;4.758;2023-04-09T14:49:41;6.00;;;5.15;;
11490;SDS011;5802;52.832;4.758;2023-04-09T14:52:07;6.60;;;5.25;;
11490;SDS011;5802;52.832;4.758;2023-04-09T14:54:34;5.97;;;5.40;;
11490;SDS011;5802;52.832;4.758;2023-04-09T14:57:01;5.95;;;5.35;;
11490;SDS011;5802;52.832;4.758;2023-04-09T14:59:30;5.30;;;4.80;;
11490;SDS011;5802;52.832;4.758;2023-04-09T15:01:56;5.72;;;5.13;;
11490;SDS011;5802;52.832;4.758;2023-04-09T15:04:23;9.20;;;5.05;;